createdAt,value
2019-04-03T00:00:14.047Z,97846.78
2019-04-03T00:02:43.395Z,97833.91
2019-04-03T00:05:12.769Z,97830.23
2019-04-03T00:07:42.175Z,97831.16
2019-04-03T00:10:11.740Z,97831.42
2019-04-03T00:12:41.281Z,97834.89
2019-04-03T00:15:13.238Z,97834.47
2019-04-03T00:17:41.744Z,97829.95
2019-04-03T00:20:11.091Z,97826.91
2019-04-03T00:22:41.234Z,97817.21
2019-04-03T00:25:10.632Z,97821.53
2019-04-03T00:27:40.116Z,97822.09
2019-04-03T00:30:09.579Z,97813.98
2019-04-03T00:32:39.067Z,97814.39
2019-04-03T00:35:08.537Z,97815.87
2019-04-03T00:37:37.864Z,97805.48
2019-04-03T00:40:09.196Z,97801.73
2019-04-03T00:42:38.548Z,97798.13
2019-04-03T00:45:08.072Z,97794.31
2019-04-03T00:47:37.518Z,97802.72
2019-04-03T00:50:07.205Z,97800.41
2019-04-03T00:52:36.718Z,97806.95
2019-04-03T00:55:06.523Z,97806.13
2019-04-03T00:57:35.998Z,97809.88
2019-04-03T01:00:14.304Z,97793.95
2019-04-03T01:02:44.299Z,97799.34
2019-04-03T01:05:13.624Z,97798.77
2019-04-03T01:07:43.066Z,97795.50
2019-04-03T01:10:12.407Z,97797.80
2019-04-03T01:12:41.768Z,97792.75
2019-04-03T01:15:11.125Z,97795.44
2019-04-03T01:17:40.462Z,97795.73
2019-04-03T01:20:09.845Z,97790.36
2019-04-03T01:22:39.380Z,97786.69
2019-04-03T01:25:09.431Z,97782.17
2019-04-03T01:27:41.223Z,97781.51
2019-04-03T01:30:09.932Z,97775.16
2019-04-03T01:32:39.281Z,97771.27
2019-04-03T01:35:09.470Z,97770.27
2019-04-03T01:37:39.159Z,97766.88
2019-04-03T01:40:08.684Z,97748.78
2019-04-03T01:42:38.251Z,97762.41
2019-04-03T01:45:07.760Z,97761.66
2019-04-03T01:47:37.091Z,97750.26
2019-04-03T01:50:07.340Z,97744.74
2019-04-03T01:52:36.796Z,97742.69
2019-04-03T01:55:06.940Z,97739.73
2019-04-03T01:57:37.073Z,97732.02
2019-04-03T02:00:08.108Z,97727.72
2019-04-03T02:02:38.748Z,97731.77
2019-04-03T02:05:08.495Z,97730.70
2019-04-03T02:07:37.915Z,97729.09
2019-04-03T02:10:19.159Z,97724.41
2019-04-03T02:12:50.632Z,97735.62
2019-04-03T02:15:21.715Z,97741.89
2019-04-03T02:17:50.691Z,97729.83
2019-04-03T02:20:20.200Z,97725.14
2019-04-03T02:22:49.544Z,97714.05
2019-04-03T02:25:18.878Z,97713.92
2019-04-03T02:27:48.265Z,97705.88
2019-04-03T02:30:17.587Z,97713.58
2019-04-03T02:32:47.088Z,97702.52
2019-04-03T02:35:16.530Z,97709.16
2019-04-03T02:37:50.331Z,97703.98
2019-04-03T02:40:19.943Z,97703.98
2019-04-03T02:42:49.292Z,97702.27
2019-04-03T02:45:20.607Z,97710.66
2019-04-03T02:47:49.843Z,97701.16
2019-04-03T02:50:25.523Z,97702.31
2019-04-03T02:52:58.128Z,97701.45
2019-04-03T02:55:28.085Z,97699.47
2019-04-03T02:57:57.534Z,97700.20
2019-04-03T03:00:27.087Z,97701.06
2019-04-03T03:02:56.487Z,97697.33
2019-04-03T03:05:28.117Z,97693.55
2019-04-03T03:07:56.986Z,97696.15
2019-04-03T03:10:26.595Z,97701.39
2019-04-03T03:13:00.196Z,97701.87
2019-04-03T03:15:27.931Z,97698.25
2019-04-03T03:17:57.265Z,97699.72
2019-04-03T03:20:26.730Z,97708.48
2019-04-03T03:22:56.129Z,97707.47
2019-04-03T03:25:25.843Z,97715.32
2019-04-03T03:27:55.166Z,97712.19
2019-04-03T03:30:42.455Z,97715.72
2019-04-03T03:33:21.884Z,97714.99
2019-04-03T03:35:31.657Z,97713.13
2019-04-03T03:37:57.964Z,97717.14
2019-04-03T03:40:27.657Z,97719.43
2019-04-03T03:42:57.486Z,97710.88
2019-04-03T03:45:26.822Z,97713.95
2019-04-03T03:47:56.232Z,97710.52
2019-04-03T03:50:25.985Z,97712.41
2019-04-03T03:52:55.650Z,97709.91
2019-04-03T03:55:26.224Z,97698.77
2019-04-03T03:57:55.679Z,97705.80
2019-04-03T04:00:25.415Z,97701.39
2019-04-03T04:02:55.258Z,97691.80
2019-04-03T04:05:24.978Z,97694.84
2019-04-03T04:07:55.081Z,97694.36
2019-04-03T04:10:26.301Z,97686.23
2019-04-03T04:12:55.960Z,97688.27
2019-04-03T04:15:28.784Z,97689.45
2019-04-03T04:17:56.412Z,97684.02
2019-04-03T04:20:25.922Z,97686.41
2019-04-03T04:22:55.296Z,97685.27
2019-04-03T04:25:24.699Z,97685.72
2019-04-03T04:27:54.081Z,97687.23
2019-04-03T04:30:24.427Z,97684.75
2019-04-03T04:32:53.772Z,97680.81
2019-04-03T04:35:23.109Z,97684.14
2019-04-03T04:37:55.278Z,97684.66
2019-04-03T04:40:23.520Z,97674.67
2019-04-03T04:42:52.854Z,97672.00
2019-04-03T04:45:22.287Z,97649.16
2019-04-03T04:47:51.602Z,97633.20
2019-04-03T04:50:25.316Z,97636.54
2019-04-03T04:52:55.110Z,97651.80
2019-04-03T04:55:24.424Z,97657.88
2019-04-03T04:57:53.793Z,97655.08
2019-04-03T05:00:23.137Z,97656.09
2019-04-03T05:02:52.478Z,97648.06
2019-04-03T05:05:21.978Z,97658.95
2019-04-03T05:07:51.374Z,97662.47
2019-04-03T05:10:20.773Z,97664.58
2019-04-03T05:12:50.367Z,97670.59
2019-04-03T05:15:23.281Z,97663.81
2019-04-03T05:17:50.792Z,97664.58
2019-04-03T05:20:20.525Z,97663.24
2019-04-03T05:22:49.997Z,97661.63
2019-04-03T05:25:19.343Z,97662.98
2019-04-03T05:27:48.742Z,97665.39
2019-04-03T05:30:30.420Z,97677.72
2019-04-03T05:33:00.195Z,97689.73
2019-04-03T05:35:29.970Z,97692.65
2019-04-03T05:37:59.285Z,97691.64
2019-04-03T05:40:28.608Z,97696.78
2019-04-03T05:42:59.799Z,97701.02
2019-04-03T05:45:29.212Z,97691.78
2019-04-03T05:47:58.848Z,97685.25
2019-04-03T05:50:28.196Z,97688.98
2019-04-03T05:52:57.525Z,97690.88
2019-04-03T05:55:27.473Z,97685.64
2019-04-03T05:57:57.168Z,97677.27
2019-04-03T06:00:27.248Z,97676.05
2019-04-03T06:02:58.080Z,97672.08
2019-04-03T06:05:27.582Z,97662.67
2019-04-03T06:07:56.955Z,97662.94
2019-04-03T06:10:28.164Z,97650.78
2019-04-03T06:12:57.404Z,97647.05
2019-04-03T06:15:26.731Z,97657.64
2019-04-03T06:17:56.295Z,97665.42
2019-04-03T06:20:25.653Z,97674.61
2019-04-03T06:22:55.255Z,97684.81
2019-04-03T06:25:28.918Z,97692.35
2019-04-03T06:27:55.864Z,97708.50
2019-04-03T06:30:25.886Z,97713.98
2019-04-03T06:32:56.420Z,97724.15
2019-04-03T06:35:25.826Z,97715.70
2019-04-03T06:37:55.207Z,97718.92
2019-04-03T06:40:24.516Z,97712.95
2019-04-03T06:42:54.153Z,97711.91
2019-04-03T06:45:25.457Z,97713.80
2019-04-03T06:47:54.676Z,97703.56
2019-04-03T06:50:24.122Z,97702.27
2019-04-03T06:52:53.713Z,97696.60
2019-04-03T06:55:25.287Z,97698.63
2019-04-03T06:57:54.215Z,97692.55
2019-04-03T07:00:23.557Z,97691.64
2019-04-03T07:02:53.132Z,97688.32
2019-04-03T07:05:22.439Z,97690.05
2019-04-03T07:07:51.891Z,97681.60
2019-04-03T07:10:25.725Z,97676.55
2019-04-03T07:12:52.377Z,97687.52
2019-04-03T07:15:24.063Z,97684.87
2019-04-03T07:17:52.848Z,97686.94
2019-04-03T07:20:22.176Z,97682.16
2019-04-03T07:22:51.536Z,97688.55
2019-04-03T07:25:20.934Z,97693.05
2019-04-03T07:27:50.315Z,97698.09
2019-04-03T07:30:20.017Z,97708.16
2019-04-03T07:32:50.720Z,97709.63
2019-04-03T07:35:20.095Z,97712.23
2019-04-03T07:37:50.999Z,97716.04
2019-04-03T07:40:21.350Z,97704.52
2019-04-03T07:42:50.762Z,97708.19
2019-04-03T07:45:20.096Z,97710.30
2019-04-03T07:47:49.499Z,97706.87
2019-04-03T07:50:18.891Z,97710.06
2019-04-03T07:52:48.935Z,97707.98
2019-04-03T07:55:18.428Z,97698.16
2019-04-03T07:57:47.773Z,97693.98
2019-04-03T08:00:17.589Z,97717.59
2019-04-03T08:02:48.629Z,97711.86
2019-04-03T08:05:18.031Z,97725.05
2019-04-03T08:07:47.470Z,97723.80
2019-04-03T08:10:16.826Z,97721.72
2019-04-03T08:12:46.148Z,97723.40
2019-04-03T08:15:15.511Z,97718.69
2019-04-03T08:17:44.834Z,97723.52
2019-04-03T08:20:14.851Z,97729.03
2019-04-03T08:22:44.395Z,97728.86
2019-04-03T08:25:14.079Z,97734.08
2019-04-03T08:27:43.834Z,97736.09
2019-04-03T08:30:13.414Z,97744.72
2019-04-03T08:32:42.772Z,97737.01
2019-04-03T08:35:20.300Z,97720.27
2019-04-03T08:37:43.532Z,97713.62
2019-04-03T08:40:13.247Z,97712.81
2019-04-03T08:42:43.102Z,97702.81
2019-04-03T08:45:12.689Z,97710.01
2019-04-03T08:47:44.522Z,97704.58
2019-04-03T08:50:13.238Z,97702.00
2019-04-03T08:52:42.600Z,97714.92
2019-04-03T08:55:14.152Z,97715.16
2019-04-03T08:57:45.368Z,97722.13
2019-04-03T09:00:14.134Z,97720.22
2019-04-03T09:02:43.978Z,97730.84
2019-04-03T09:05:14.516Z,97722.66
2019-04-03T09:07:44.174Z,97726.94
2019-04-03T09:10:13.513Z,97727.09
2019-04-03T09:12:43.179Z,97739.32
2019-04-03T09:15:12.501Z,97751.27
2019-04-03T09:17:41.916Z,97742.39
2019-04-03T09:20:13.456Z,97733.96
2019-04-03T09:22:42.353Z,97739.64
2019-04-03T09:25:13.430Z,97728.20
2019-04-03T09:27:42.853Z,97733.55
2019-04-03T09:30:15.900Z,97736.72
2019-04-03T09:32:44.473Z,97738.21
2019-04-03T09:35:14.491Z,97722.52
2019-04-03T09:37:45.674Z,97711.91
2019-04-03T09:40:17.267Z,97708.84
2019-04-03T09:42:46.053Z,97711.52
2019-04-03T09:45:15.413Z,97708.65
2019-04-03T09:47:44.747Z,97701.81
2019-04-03T09:50:14.823Z,97699.26
2019-04-03T09:52:48.683Z,97699.39
2019-04-03T09:55:15.507Z,97696.81
2019-04-03T09:57:44.855Z,97693.79
2019-04-03T10:00:14.263Z,97686.66
2019-04-03T10:02:43.646Z,97674.38
2019-04-03T10:05:13.001Z,97678.84
2019-04-03T10:07:42.334Z,97680.91
2019-04-03T10:10:11.859Z,97680.94
2019-04-03T10:12:43.004Z,97677.27
2019-04-03T10:15:12.296Z,97670.57
2019-04-03T10:17:41.627Z,97660.01
2019-04-03T10:20:12.148Z,97655.95
2019-04-03T10:22:41.731Z,97651.53
2019-04-03T10:25:11.482Z,97658.16
2019-04-03T10:27:43.578Z,97650.45
2019-04-03T10:30:14.285Z,97641.24
2019-04-03T10:32:43.664Z,97635.95
2019-04-03T10:35:13.266Z,97639.62
2019-04-03T10:37:45.687Z,97637.17
2019-04-03T10:40:13.834Z,97632.19
2019-04-03T10:42:43.168Z,97636.83
2019-04-03T10:45:12.618Z,97628.41
2019-04-03T10:47:44.061Z,97632.47
2019-04-03T10:50:13.093Z,97625.81
2019-04-03T10:52:44.278Z,97638.77
2019-04-03T10:55:13.810Z,97645.02
2019-04-03T10:57:43.327Z,97636.92
2019-04-03T11:00:13.452Z,97640.00
2019-04-03T11:02:43.097Z,97628.75
2019-04-03T11:05:12.872Z,97640.64
2019-04-03T11:07:42.418Z,97633.59
2019-04-03T11:10:13.727Z,97641.42
2019-04-03T11:12:43.311Z,97637.72
2019-04-03T11:15:12.879Z,97627.06
2019-04-03T11:17:42.302Z,97624.89
2019-04-03T11:20:11.879Z,97635.70
2019-04-03T11:22:42.797Z,97636.73
2019-04-03T11:25:15.262Z,97640.98
2019-04-03T11:27:45.070Z,97629.73
2019-04-03T11:30:18.228Z,97628.32
2019-04-03T11:32:46.447Z,97615.63
2019-04-03T11:35:16.299Z,97610.10
2019-04-03T11:37:45.702Z,97611.70
2019-04-03T11:40:18.077Z,97617.71
2019-04-03T11:42:46.910Z,97614.13
2019-04-03T11:45:16.603Z,97613.91
2019-04-03T11:47:46.843Z,97614.20
2019-04-03T11:50:17.337Z,97605.50
2019-04-03T11:52:46.676Z,97599.87
2019-04-03T11:55:16.643Z,97601.25
2019-04-03T11:57:48.241Z,97589.00
2019-04-03T12:00:23.664Z,97583.84
2019-04-03T12:02:53.320Z,97574.78
2019-04-03T12:05:22.778Z,97570.77
2019-04-03T12:07:52.239Z,97578.60
2019-04-03T12:10:21.560Z,97589.47
2019-04-03T12:12:51.316Z,97598.78
2019-04-03T12:15:22.010Z,97586.89
2019-04-03T12:17:52.079Z,97586.29
2019-04-03T12:20:21.560Z,97580.38
2019-04-03T12:22:51.993Z,97573.91
2019-04-03T12:25:22.051Z,97571.47
2019-04-03T12:27:51.462Z,97576.09
2019-04-03T12:30:20.809Z,97568.53
2019-04-03T12:32:50.380Z,97575.77
2019-04-03T12:35:19.893Z,97556.11
2019-04-03T12:37:50.149Z,97550.62
2019-04-03T12:40:20.570Z,97545.83
2019-04-03T12:42:50.099Z,97544.94
2019-04-03T12:45:19.486Z,97559.44
2019-04-03T12:47:48.901Z,97559.94
2019-04-03T12:50:18.418Z,97562.95
2019-04-03T12:52:47.746Z,97564.17
2019-04-03T12:55:17.249Z,97563.67
2019-04-03T12:57:46.640Z,97557.72
2019-04-03T13:00:16.179Z,97557.13
2019-04-03T13:02:45.786Z,97557.85
2019-04-03T13:05:15.327Z,97550.13
2019-04-03T13:07:46.872Z,97547.03
2019-04-03T13:10:15.829Z,97554.72
2019-04-03T13:12:45.142Z,97563.81
2019-04-03T13:15:15.200Z,97554.30
2019-04-03T13:17:45.004Z,97549.88
2019-04-03T13:20:15.692Z,97546.30
2019-04-03T13:22:45.199Z,97540.22
2019-04-03T13:25:14.535Z,97538.11
2019-04-03T13:27:44.066Z,97536.20
2019-04-03T13:30:13.927Z,97540.04
2019-04-03T13:32:43.463Z,97530.05
2019-04-03T13:35:14.652Z,97525.70
2019-04-03T13:37:44.241Z,97532.67
2019-04-03T13:40:13.821Z,97521.23
2019-04-03T13:42:43.178Z,97525.67
2019-04-03T13:45:12.500Z,97523.60
2019-04-03T13:47:44.558Z,97518.72
2019-04-03T13:50:12.991Z,97503.14
2019-04-03T13:52:47.593Z,97501.55
2019-04-03T13:55:13.558Z,97498.11
2019-04-03T13:57:42.970Z,97491.89
2019-04-03T14:00:19.883Z,97494.17
2019-04-03T14:02:46.362Z,97478.77
2019-04-03T14:05:14.554Z,97474.44
2019-04-03T14:07:43.889Z,97493.11
2019-04-03T14:10:13.302Z,97507.48
2019-04-03T14:12:44.670Z,97502.70
2019-04-03T14:15:14.458Z,97503.69
2019-04-03T14:17:54.629Z,97514.73
2019-04-03T14:20:16.742Z,97525.93
2019-04-03T14:22:46.536Z,97525.50
2019-04-03T14:25:20.952Z,97537.73
2019-04-03T14:27:46.956Z,97546.75
2019-04-03T14:30:16.538Z,97525.36
2019-04-03T14:32:46.508Z,97514.22
2019-04-03T14:35:41.948Z,97520.44
2019-04-03T14:37:47.031Z,97527.83
2019-04-03T14:40:16.743Z,97534.95
2019-04-03T14:42:46.424Z,97525.17
2019-04-03T14:45:16.029Z,97511.52
2019-04-03T14:47:45.468Z,97506.09
2019-04-03T14:50:14.805Z,97503.80
2019-04-03T14:52:44.175Z,97501.42
2019-04-03T14:55:20.496Z,97505.00
2019-04-03T14:57:44.622Z,97520.23
2019-04-03T15:00:26.914Z,97530.58
2019-04-03T15:02:45.423Z,97526.97
2019-04-03T15:05:14.855Z,97523.64
2019-04-03T15:07:44.536Z,97524.95
2019-04-03T15:10:13.998Z,97535.94
2019-04-03T15:12:43.411Z,97525.03
2019-04-03T15:15:12.838Z,97517.75
2019-04-03T15:17:42.172Z,97517.31
2019-04-03T15:20:12.376Z,97517.41
2019-04-03T15:22:41.737Z,97516.66
2019-04-03T15:25:11.161Z,97513.20
2019-04-03T15:27:42.508Z,97508.55
2019-04-03T15:30:12.612Z,97510.96
2019-04-03T15:32:42.420Z,97509.27
2019-04-03T15:35:11.738Z,97506.50
2019-04-03T15:37:42.409Z,97502.05
2019-04-03T15:40:12.536Z,97496.70
2019-04-03T15:42:42.009Z,97492.48
2019-04-03T15:45:11.619Z,97497.58
2019-04-03T15:47:44.937Z,97493.30
2019-04-03T15:50:12.137Z,97490.61
2019-04-03T15:52:43.590Z,97495.35
2019-04-03T15:55:12.908Z,97492.58
2019-04-03T15:57:42.419Z,97477.69
2019-04-03T16:00:16.306Z,97474.29
2019-04-03T16:02:47.213Z,97470.34
2019-04-03T16:05:16.700Z,97471.82
2019-04-03T16:07:46.081Z,97467.39
2019-04-03T16:10:15.439Z,97476.56
2019-04-03T16:12:45.446Z,97477.72
2019-04-03T16:15:15.416Z,97474.15
2019-04-03T16:17:45.209Z,97467.93
2019-04-03T16:20:17.052Z,97469.09
2019-04-03T16:22:45.967Z,97474.78
2019-04-03T16:25:16.768Z,97478.22
2019-04-03T16:27:46.624Z,97468.16
2019-04-03T16:30:17.319Z,97474.33
2019-04-03T16:32:47.018Z,97468.83
2019-04-03T16:35:16.373Z,97477.09
2019-04-03T16:37:45.702Z,97477.32
2019-04-03T16:40:15.089Z,97475.76
2019-04-03T16:42:47.461Z,97482.96
2019-04-03T16:45:15.470Z,97490.78
2019-04-03T16:47:45.705Z,97487.61
2019-04-03T16:50:16.241Z,97481.94
2019-04-03T16:52:47.390Z,97474.28
2019-04-03T16:55:17.126Z,97469.48
2019-04-03T16:57:47.081Z,97471.92
2019-04-03T17:00:16.450Z,97461.27
2019-04-03T17:02:46.188Z,97458.14
2019-04-03T17:05:15.643Z,97458.49
2019-04-03T17:07:45.140Z,97457.15
2019-04-03T17:10:14.592Z,97455.86
2019-04-03T17:12:45.418Z,97456.70
2019-04-03T17:15:15.440Z,97458.05
2019-04-03T17:17:45.676Z,97457.34
2019-04-03T17:20:16.184Z,97462.28
2019-04-03T17:22:46.798Z,97469.00
2019-04-03T17:25:16.406Z,97464.62
2019-04-03T17:27:55.135Z,97476.60
2019-04-03T17:30:18.295Z,97470.48
2019-04-03T17:32:47.962Z,97466.95
2019-04-03T17:35:17.481Z,97463.02
2019-04-03T17:37:47.097Z,97458.27
2019-04-03T17:40:16.743Z,97458.36
2019-04-03T17:42:46.125Z,97440.30
2019-04-03T17:45:16.254Z,97436.72
2019-04-03T17:47:45.797Z,97448.39
2019-04-03T17:50:15.211Z,97440.20
2019-04-03T17:52:44.556Z,97440.70
2019-04-03T17:55:13.925Z,97441.05
2019-04-03T17:57:45.322Z,97440.78
2019-04-03T18:00:21.009Z,97454.28
2019-04-03T18:02:50.572Z,97463.58
2019-04-03T18:05:19.983Z,97471.43
2019-04-03T18:07:49.429Z,97473.02
2019-04-03T18:10:18.750Z,97477.32
2019-04-03T18:12:50.155Z,97481.19
2019-04-03T18:15:20.601Z,97493.27
2019-04-03T18:17:49.937Z,97493.88
2019-04-03T18:20:19.298Z,97491.48
2019-04-03T18:22:50.416Z,97495.01
2019-04-03T18:25:19.720Z,97486.19
2019-04-03T18:27:49.117Z,97495.41
2019-04-03T18:30:18.430Z,97497.80
2019-04-03T18:32:47.784Z,97501.69
2019-04-03T18:35:17.128Z,97500.38
2019-04-03T18:37:46.503Z,97505.12
2019-04-03T18:40:15.854Z,97499.89
2019-04-03T18:42:45.199Z,97505.88
2019-04-03T18:45:25.098Z,97496.53
2019-04-03T18:47:46.680Z,97491.14
2019-04-03T18:50:16.244Z,97490.94
2019-04-03T18:52:45.595Z,97479.44
2019-04-03T18:55:14.926Z,97473.66
2019-04-03T18:57:44.259Z,97479.63
2019-04-03T19:00:13.749Z,97481.47
2019-04-03T19:02:43.111Z,97487.77
2019-04-03T19:05:15.630Z,97496.10
2019-04-03T19:07:46.748Z,97484.02
2019-04-03T19:10:18.313Z,97482.67
2019-04-03T19:12:47.423Z,97491.00
2019-04-03T19:15:16.791Z,97496.26
2019-04-03T19:17:46.130Z,97498.19
2019-04-03T19:20:15.452Z,97492.18
2019-04-03T19:22:44.816Z,97499.66
2019-04-03T19:25:14.152Z,97507.98
2019-04-03T19:27:43.519Z,97516.09
2019-04-03T19:30:12.890Z,97528.16
2019-04-03T19:32:43.242Z,97532.52
2019-04-03T19:35:13.323Z,97538.50
2019-04-03T19:37:45.044Z,97529.80
2019-04-03T19:40:13.749Z,97526.74
2019-04-03T19:42:43.888Z,97527.23
2019-04-03T19:45:13.847Z,97521.75
2019-04-03T19:47:43.250Z,97513.84
2019-04-03T19:50:12.588Z,97516.32
2019-04-03T19:52:42.445Z,97513.41
2019-04-03T19:55:11.866Z,97515.16
2019-04-03T19:57:41.423Z,97513.41
2019-04-03T20:00:10.960Z,97504.77
2019-04-03T20:02:42.728Z,97495.28
2019-04-03T20:05:11.389Z,97484.50
2019-04-03T20:07:40.714Z,97486.13
2019-04-03T20:10:10.823Z,97484.14
2019-04-03T20:12:40.200Z,97476.23
2019-04-03T20:15:09.500Z,97478.71
2019-04-03T20:17:38.868Z,97484.91
2019-04-03T20:20:08.570Z,97480.61
2019-04-03T20:22:42.164Z,97469.83
2019-04-03T20:25:09.443Z,97471.22
2019-04-03T20:27:38.853Z,97478.64
2019-04-03T20:30:09.376Z,97486.36
2019-04-03T20:32:40.831Z,97490.86
2019-04-03T20:35:09.761Z,97487.27
2019-04-03T20:37:39.198Z,97483.63
2019-04-03T20:40:08.807Z,97497.50
2019-04-03T20:42:40.779Z,97490.80
2019-04-03T20:45:09.765Z,97499.48
2019-04-03T20:47:39.241Z,97506.38
2019-04-03T20:50:08.799Z,97499.33
2019-04-03T20:52:38.124Z,97500.37
2019-04-03T20:55:07.848Z,97515.71
2019-04-03T20:57:37.181Z,97507.89
2019-04-03T21:00:14.032Z,97494.25
2019-04-03T21:02:43.541Z,97485.41
2019-04-03T21:05:12.928Z,97497.42
2019-04-03T21:07:42.334Z,97513.11
2019-04-03T21:10:11.659Z,97515.09
2019-04-03T21:12:41.008Z,97511.82
2019-04-03T21:15:13.301Z,97525.81
2019-04-03T21:17:41.400Z,97516.44
2019-04-03T21:20:10.758Z,97505.09
2019-04-03T21:22:40.153Z,97503.98
2019-04-03T21:25:09.526Z,97498.14
2019-04-03T21:27:40.112Z,97481.17
2019-04-03T21:30:11.732Z,97489.69
2019-04-03T21:32:41.083Z,97501.73
2019-04-03T21:35:10.418Z,97508.09
2019-04-03T21:37:40.623Z,97515.63
2019-04-03T21:40:10.120Z,97523.70
2019-04-03T21:42:39.455Z,97517.02
2019-04-03T21:45:08.801Z,97508.67
2019-04-03T21:47:38.140Z,97513.33
2019-04-03T21:50:07.829Z,97530.72
2019-04-03T21:52:37.154Z,97509.08
2019-04-03T21:55:08.049Z,97488.85
2019-04-03T21:57:38.415Z,97493.35
2019-04-03T22:00:13.402Z,97510.98
2019-04-03T22:02:44.862Z,97514.02
2019-04-03T22:05:13.548Z,97518.03
2019-04-03T22:07:42.903Z,97507.13
2019-04-03T22:10:13.888Z,97498.34
2019-04-03T22:12:43.236Z,97488.05
2019-04-03T22:15:14.431Z,97487.59
2019-04-03T22:17:44.138Z,97475.45
2019-04-03T22:20:13.470Z,97475.88
2019-04-03T22:22:42.845Z,97470.20
2019-04-03T22:25:12.186Z,97473.03
2019-04-03T22:27:42.760Z,97480.63
2019-04-03T22:30:12.840Z,97477.41
2019-04-03T22:32:42.170Z,97454.12
2019-04-03T22:35:11.582Z,97463.16
2019-04-03T22:37:40.905Z,97480.05
2019-04-03T22:40:10.885Z,97466.31
2019-04-03T22:42:40.267Z,97453.83
2019-04-03T22:45:09.899Z,97454.69
2019-04-03T22:47:39.330Z,97458.34
2019-04-03T22:50:08.736Z,97461.77
2019-04-03T22:52:39.937Z,97462.37
2019-04-03T22:55:09.376Z,97459.95
2019-04-03T22:57:38.715Z,97464.30
2019-04-03T23:00:08.716Z,97463.45
2019-04-03T23:02:39.003Z,97456.89
2019-04-03T23:05:08.458Z,97446.09
2019-04-03T23:07:37.787Z,97434.31
2019-04-03T23:10:08.384Z,97425.27
2019-04-03T23:12:37.997Z,97417.83
2019-04-03T23:15:09.428Z,97429.48
2019-04-03T23:17:38.595Z,97432.40
2019-04-03T23:20:08.017Z,97423.66
2019-04-03T23:22:37.431Z,97413.94
2019-04-03T23:25:07.672Z,97405.84
2019-04-03T23:27:36.997Z,97416.17
2019-04-03T23:30:09.911Z,97419.30
2019-04-03T23:32:39.105Z,97424.76
2019-04-03T23:35:08.517Z,97439.32
2019-04-03T23:37:37.864Z,97439.59
2019-04-03T23:40:07.289Z,97433.78
2019-04-03T23:42:37.790Z,97427.80
2019-04-03T23:45:08.487Z,97428.92
2019-04-03T23:47:37.827Z,97432.30
2019-04-03T23:50:08.029Z,97428.54
2019-04-03T23:52:37.412Z,97435.77
2019-04-03T23:55:07.333Z,97427.39
2019-04-03T23:57:39.698Z,97415.35
